Lake Kiowa, Texas
Current Conditions -  °F | °C
As of 6:15 AM on Sunday 23 Nov 2014 (Local Time) from KGLE Reporting Station
Haze Haze  
Wind Chill: 50°   Ceiling: Unl
Heat Index: 50°   Visibility: 2.5mi
Dew Point: 50°   Wind: 7mph
Humidity: 100%   Direction: 140°SE
Pressure: 29.58"   Gusts: NA
Location:  33.7001°N, 97.0805°W
Report Text: KGLE 231215Z AUTO 14006KT 2 1/2SM BR CLR 10/10 A2958 RMK AO2 T01000100
Loading
Personal Weather Stations






























Interactive Weather Map New forecast layout! Learn more

10-Day Weather Forecast

Advertisements
Track Severe Weather on mobile